createdAt,value
2022-08-21T00:00:43.922Z,966.16
2022-08-21T00:01:39.957Z,966.16
2022-08-21T00:02:39.973Z,966.18
2022-08-21T00:03:39.887Z,966.16
2022-08-21T00:04:39.836Z,966.13
2022-08-21T00:05:39.792Z,966.15
2022-08-21T00:06:39.757Z,966.14
2022-08-21T00:07:39.716Z,966.10
2022-08-21T00:08:39.677Z,966.14
2022-08-21T00:09:39.660Z,966.08
2022-08-21T00:10:39.598Z,966.08
2022-08-21T00:11:39.561Z,966.08
2022-08-21T00:12:39.519Z,966.05
2022-08-21T00:13:39.499Z,966.04
2022-08-21T00:14:39.460Z,966.07
2022-08-21T00:15:39.397Z,966.05
2022-08-21T00:16:39.356Z,966.00
2022-08-21T00:17:39.315Z,966.00
2022-08-21T00:18:39.277Z,966.04
2022-08-21T00:19:39.235Z,965.95
2022-08-21T00:20:39.394Z,965.98
2022-08-21T00:21:39.156Z,965.97
2022-08-21T00:22:39.116Z,965.97
2022-08-21T00:23:39.080Z,965.96
2022-08-21T00:24:39.038Z,965.98
2022-08-21T00:25:38.998Z,965.97
2022-08-21T00:26:38.981Z,965.95
2022-08-21T00:27:38.944Z,965.99
2022-08-21T00:28:38.876Z,965.97
2022-08-21T00:29:38.831Z,965.95
2022-08-21T00:30:38.795Z,965.96
2022-08-21T00:31:38.756Z,965.97
2022-08-21T00:32:38.715Z,965.92
2022-08-21T00:33:38.690Z,965.94
2022-08-21T00:34:38.635Z,965.92
2022-08-21T00:35:38.591Z,965.93
2022-08-21T00:36:38.552Z,965.91
2022-08-21T00:37:38.511Z,965.90
2022-08-21T00:38:38.475Z,965.93
2022-08-21T00:39:38.484Z,965.91
2022-08-21T00:40:38.392Z,965.94
2022-08-21T00:41:39.027Z,965.89
2022-08-21T00:42:38.313Z,965.88
2022-08-21T00:43:38.272Z,965.86
2022-08-21T00:44:38.227Z,965.83
2022-08-21T00:45:38.201Z,965.80
2022-08-21T00:46:38.145Z,965.81
2022-08-21T00:47:38.112Z,965.82
2022-08-21T00:48:38.070Z,965.81
2022-08-21T00:49:38.035Z,965.79
2022-08-21T00:50:37.986Z,965.81
2022-08-21T00:51:38.432Z,965.82
2022-08-21T00:52:37.904Z,965.79
2022-08-21T00:53:37.865Z,965.82
2022-08-21T00:54:37.826Z,965.81
2022-08-21T00:55:37.789Z,965.78
2022-08-21T00:56:37.763Z,965.83
2022-08-21T00:57:37.704Z,965.78
2022-08-21T00:58:37.666Z,965.79
2022-08-21T00:59:37.626Z,965.77
2022-08-21T01:00:37.584Z,965.75
2022-08-21T01:01:37.582Z,965.79
2022-08-21T01:02:37.533Z,965.75
2022-08-21T01:03:37.466Z,965.77
2022-08-21T01:04:37.426Z,965.79
2022-08-21T01:05:37.383Z,965.75
2022-08-21T01:06:37.348Z,965.74
2022-08-21T01:07:37.304Z,965.79
2022-08-21T01:08:37.289Z,965.80
2022-08-21T01:09:37.224Z,965.78
2022-08-21T01:10:37.186Z,965.76
2022-08-21T01:11:37.143Z,965.76
2022-08-21T01:12:37.101Z,965.75
2022-08-21T01:13:37.064Z,965.77
2022-08-21T01:14:37.034Z,965.79
2022-08-21T01:15:36.980Z,965.78
2022-08-21T01:16:36.942Z,965.77
2022-08-21T01:17:36.907Z,965.79
2022-08-21T01:18:36.864Z,965.78
2022-08-21T01:19:36.824Z,965.77
2022-08-21T01:20:36.825Z,965.74
2022-08-21T01:21:36.739Z,965.74
2022-08-21T01:22:36.705Z,965.75
2022-08-21T01:23:36.672Z,965.73
2022-08-21T01:24:36.626Z,965.76
2022-08-21T01:25:36.587Z,965.76
2022-08-21T01:26:36.563Z,965.75
2022-08-21T01:27:36.499Z,965.78
2022-08-21T01:28:36.465Z,965.76
2022-08-21T01:29:36.425Z,965.73
2022-08-21T01:30:36.381Z,965.76
2022-08-21T01:31:36.339Z,965.74
2022-08-21T01:32:36.316Z,965.74
2022-08-21T01:33:36.259Z,965.72
2022-08-21T01:34:36.232Z,965.71
2022-08-21T01:35:36.182Z,965.70
2022-08-21T01:36:36.144Z,965.69
2022-08-21T01:37:36.126Z,965.69
2022-08-21T01:38:36.060Z,965.66
2022-08-21T01:39:36.105Z,965.62
2022-08-21T01:40:35.982Z,965.65
2022-08-21T01:41:35.950Z,965.64
2022-08-21T01:42:35.908Z,965.63
2022-08-21T01:43:39.471Z,965.65
2022-08-21T01:44:35.825Z,965.66
2022-08-21T01:45:35.781Z,965.61
2022-08-21T01:46:35.739Z,965.64
2022-08-21T01:47:35.705Z,965.66
2022-08-21T01:48:35.667Z,965.61
2022-08-21T01:49:35.630Z,965.61
2022-08-21T01:50:35.581Z,965.64
2022-08-21T01:51:35.538Z,965.58
2022-08-21T01:52:35.514Z,965.55
2022-08-21T01:53:35.463Z,965.58
2022-08-21T01:54:35.419Z,965.53
2022-08-21T01:55:35.383Z,965.57
2022-08-21T01:56:35.339Z,965.53
2022-08-21T01:57:35.293Z,965.52
2022-08-21T01:58:35.290Z,965.52
2022-08-21T01:59:35.222Z,965.49
2022-08-21T02:00:35.213Z,965.52
2022-08-21T02:01:35.141Z,965.48
2022-08-21T02:02:35.098Z,965.46
2022-08-21T02:03:35.883Z,965.47
2022-08-21T02:04:35.039Z,965.47
2022-08-21T02:05:34.981Z,965.52
2022-08-21T02:06:34.942Z,965.51
2022-08-21T02:07:34.900Z,965.51
2022-08-21T02:08:34.859Z,965.49
2022-08-21T02:09:34.819Z,965.49
2022-08-21T02:10:34.810Z,965.47
2022-08-21T02:11:34.742Z,965.49
2022-08-21T02:12:34.701Z,965.48
2022-08-21T02:13:34.657Z,965.45
2022-08-21T02:14:34.621Z,965.42
2022-08-21T02:15:34.578Z,965.40
2022-08-21T02:16:34.558Z,965.36
2022-08-21T02:17:34.496Z,965.38
2022-08-21T02:18:34.455Z,965.39
2022-08-21T02:19:40.005Z,965.34
2022-08-21T02:20:34.380Z,965.37
2022-08-21T02:21:34.364Z,965.37
2022-08-21T02:22:34.296Z,965.32
2022-08-21T02:23:34.255Z,965.30
2022-08-21T02:24:34.216Z,965.30
2022-08-21T02:25:34.179Z,965.31
2022-08-21T02:26:34.140Z,965.30
2022-08-21T02:27:34.131Z,965.31
2022-08-21T02:28:34.053Z,965.33
2022-08-21T02:29:34.015Z,965.31
2022-08-21T02:30:33.972Z,965.32
2022-08-21T02:31:33.938Z,965.30
2022-08-21T02:32:33.895Z,965.32
2022-08-21T02:33:33.873Z,965.32
2022-08-21T02:34:33.810Z,965.30
2022-08-21T02:35:33.773Z,965.29
2022-08-21T02:36:33.735Z,965.32
2022-08-21T02:37:33.689Z,965.29
2022-08-21T02:38:33.651Z,965.27
2022-08-21T02:39:33.633Z,965.29
2022-08-21T02:40:33.578Z,965.27
2022-08-21T02:41:33.531Z,965.22
2022-08-21T02:42:33.491Z,965.26
2022-08-21T02:43:33.449Z,965.24
2022-08-21T02:44:34.779Z,965.24
2022-08-21T02:45:33.380Z,965.23
2022-08-21T02:46:33.331Z,965.25
2022-08-21T02:47:33.298Z,965.28
2022-08-21T02:48:33.255Z,965.25
2022-08-21T02:49:33.229Z,965.26
2022-08-21T02:50:33.171Z,965.25
2022-08-21T02:51:33.134Z,965.26
2022-08-21T02:52:33.089Z,965.30
2022-08-21T02:53:33.048Z,965.28
2022-08-21T02:54:33.006Z,965.32
2022-08-21T02:55:32.993Z,965.33
2022-08-21T02:56:32.931Z,965.29
2022-08-21T02:57:32.883Z,965.28
2022-08-21T02:58:32.844Z,965.28
2022-08-21T02:59:32.809Z,965.32
2022-08-21T03:00:32.766Z,965.31
2022-08-21T03:01:32.817Z,965.31
2022-08-21T03:02:32.704Z,965.33
2022-08-21T03:03:32.642Z,965.29
2022-08-21T03:04:32.605Z,965.30
2022-08-21T03:05:32.565Z,965.27
2022-08-21T03:06:32.521Z,965.29
2022-08-21T03:07:32.483Z,965.28
2022-08-21T03:08:32.475Z,965.29
2022-08-21T03:09:32.401Z,965.28
2022-08-21T03:10:32.359Z,965.28
2022-08-21T03:11:32.324Z,965.26
2022-08-21T03:12:32.277Z,965.27
2022-08-21T03:13:32.246Z,965.29
2022-08-21T03:14:32.216Z,965.27
2022-08-21T03:15:32.158Z,965.27
2022-08-21T03:16:34.857Z,965.24
2022-08-21T03:17:32.076Z,965.21
2022-08-21T03:18:32.034Z,965.19
2022-08-21T03:19:31.997Z,965.22
2022-08-21T03:20:31.978Z,965.18
2022-08-21T03:21:31.916Z,965.20
2022-08-21T03:22:31.874Z,965.15
2022-08-21T03:23:32.554Z,965.15
2022-08-21T03:24:31.796Z,965.13
2022-08-21T03:25:40.525Z,965.18
2022-08-21T03:26:31.738Z,965.12
2022-08-21T03:27:31.672Z,965.13
2022-08-21T03:28:31.630Z,965.11
2022-08-21T03:29:31.594Z,965.11
2022-08-21T03:30:31.552Z,965.15
2022-08-21T03:31:31.516Z,965.16
2022-08-21T03:32:31.514Z,965.16
2022-08-21T03:33:31.427Z,965.14
2022-08-21T03:34:31.390Z,965.14
2022-08-21T03:35:31.352Z,965.14
2022-08-21T03:36:31.309Z,965.16
2022-08-21T03:37:31.270Z,965.16
2022-08-21T03:38:31.240Z,965.16
2022-08-21T03:39:31.208Z,965.17
2022-08-21T03:40:31.148Z,965.16
2022-08-21T03:41:31.106Z,965.09
2022-08-21T03:42:31.067Z,965.15
2022-08-21T03:43:32.116Z,965.15
2022-08-21T03:44:30.987Z,965.12
2022-08-21T03:45:30.959Z,965.10
2022-08-21T03:46:30.905Z,965.15
2022-08-21T03:47:30.867Z,965.18
2022-08-21T03:48:30.825Z,965.17
2022-08-21T03:49:30.806Z,965.15
2022-08-21T03:50:30.747Z,965.15
2022-08-21T03:51:30.706Z,965.14
2022-08-21T03:52:30.660Z,965.12
2022-08-21T03:53:30.645Z,965.14
2022-08-21T03:54:30.583Z,965.12
2022-08-21T03:55:30.545Z,965.10
2022-08-21T03:56:30.506Z,965.15
2022-08-21T03:57:30.465Z,965.14
2022-08-21T03:58:30.425Z,965.10
2022-08-21T03:59:30.400Z,965.10
2022-08-21T04:00:30.344Z,965.11
2022-08-21T04:01:30.357Z,965.06
2022-08-21T04:02:30.267Z,965.06
2022-08-21T04:03:30.218Z,965.06
2022-08-21T04:04:30.203Z,965.07
2022-08-21T04:05:30.143Z,965.07
2022-08-21T04:06:32.496Z,965.08
2022-08-21T04:07:30.062Z,965.06
2022-08-21T04:08:30.022Z,965.08
2022-08-21T04:09:29.978Z,965.09
2022-08-21T04:10:29.953Z,965.10
2022-08-21T04:11:29.897Z,965.15
2022-08-21T04:12:29.858Z,965.14
2022-08-21T04:13:29.824Z,965.18
2022-08-21T04:14:29.779Z,965.20
2022-08-21T04:15:29.737Z,965.23
2022-08-21T04:16:29.710Z,965.20
2022-08-21T04:17:29.656Z,965.21
2022-08-21T04:18:29.619Z,965.22
2022-08-21T04:19:29.575Z,965.20
2022-08-21T04:20:29.541Z,965.21
2022-08-21T04:21:29.497Z,965.25
2022-08-21T04:22:29.473Z,965.24
2022-08-21T04:23:29.414Z,965.22
2022-08-21T04:24:30.032Z,965.23
2022-08-21T04:25:29.338Z,965.21
2022-08-21T04:26:29.298Z,965.23
2022-08-21T04:27:29.261Z,965.24
2022-08-21T04:28:30.443Z,965.22
2022-08-21T04:29:29.172Z,965.24
2022-08-21T04:30:29.145Z,965.27
2022-08-21T04:31:29.098Z,965.28
2022-08-21T04:32:29.056Z,965.26
2022-08-21T04:33:29.013Z,965.30
2022-08-21T04:34:28.999Z,965.33
2022-08-21T04:35:28.957Z,965.32
2022-08-21T04:36:28.892Z,965.30
2022-08-21T04:37:28.858Z,965.33
2022-08-21T04:38:34.888Z,965.36
2022-08-21T04:39:29.647Z,965.37
2022-08-21T04:40:28.787Z,965.37
2022-08-21T04:41:28.695Z,965.36
2022-08-21T04:42:28.649Z,965.38
2022-08-21T04:43:28.613Z,965.39
2022-08-21T04:44:28.573Z,965.38
2022-08-21T04:45:28.545Z,965.39
2022-08-21T04:46:28.491Z,965.39
2022-08-21T04:47:50.465Z,965.40
2022-08-21T04:48:28.426Z,965.40
2022-08-21T04:49:28.371Z,965.41
2022-08-21T04:50:28.327Z,965.39
2022-08-21T04:51:28.292Z,965.38
2022-08-21T04:52:28.246Z,965.39
2022-08-21T04:53:28.211Z,965.43
2022-08-21T04:54:28.194Z,965.42
2022-08-21T04:55:28.126Z,965.44
2022-08-21T04:56:28.089Z,965.44
2022-08-21T04:57:39.720Z,965.45
2022-08-21T04:58:28.006Z,965.46
2022-08-21T04:59:27.968Z,965.47
2022-08-21T05:00:27.950Z,965.49
2022-08-21T05:01:27.967Z,965.48
2022-08-21T05:02:27.845Z,965.44
2022-08-21T05:03:27.805Z,965.43
2022-08-21T05:04:27.765Z,965.46
2022-08-21T05:05:27.724Z,965.44
2022-08-21T05:06:27.709Z,965.44
2022-08-21T05:07:41.902Z,965.46
2022-08-21T05:08:27.604Z,965.44
2022-08-21T05:09:27.564Z,965.43
2022-08-21T05:10:27.524Z,965.45
2022-08-21T05:11:27.483Z,965.43
2022-08-21T05:12:27.460Z,965.45
2022-08-21T05:13:27.404Z,965.46
2022-08-21T05:14:27.360Z,965.48
2022-08-21T05:15:27.326Z,965.43
2022-08-21T05:16:36.852Z,965.47
2022-08-21T05:17:27.257Z,965.46
2022-08-21T05:18:27.208Z,965.46
2022-08-21T05:19:27.158Z,965.45
2022-08-21T05:20:27.123Z,965.46
2022-08-21T05:21:27.079Z,965.44
2022-08-21T05:22:27.037Z,965.44
2022-08-21T05:23:27.012Z,965.47
2022-08-21T05:24:26.956Z,965.44
2022-08-21T05:25:28.181Z,965.45
2022-08-21T05:26:26.878Z,965.46
2022-08-21T05:27:26.843Z,965.49
2022-08-21T05:28:26.911Z,965.44
2022-08-21T05:29:26.773Z,965.46
2022-08-21T05:30:26.715Z,965.47
2022-08-21T05:31:26.676Z,965.48
2022-08-21T05:32:26.636Z,965.53
2022-08-21T05:33:26.598Z,965.56
2022-08-21T05:34:26.555Z,965.56
2022-08-21T05:35:26.536Z,965.56
2022-08-21T05:36:26.480Z,965.56
2022-08-21T05:37:26.434Z,965.57
2022-08-21T05:38:26.395Z,965.54
2022-08-21T05:39:26.359Z,965.56
2022-08-21T05:40:26.360Z,965.60
2022-08-21T05:41:26.297Z,965.59
2022-08-21T05:42:26.232Z,965.58
2022-08-21T05:43:26.196Z,965.60
2022-08-21T05:44:26.154Z,965.63
2022-08-21T05:45:41.870Z,965.62
2022-08-21T05:46:26.076Z,965.64
2022-08-21T05:47:26.046Z,965.62
2022-08-21T05:48:26.016Z,965.62
2022-08-21T05:49:25.951Z,965.61
2022-08-21T05:50:26.953Z,965.58
2022-08-21T05:51:25.878Z,965.61
2022-08-21T05:52:25.830Z,965.60
2022-08-21T05:53:25.788Z,965.61
2022-08-21T05:54:25.766Z,965.61
2022-08-21T05:55:25.714Z,965.59
2022-08-21T05:56:25.698Z,965.60
2022-08-21T05:57:25.632Z,965.61
2022-08-21T05:58:25.595Z,965.60
2022-08-21T05:59:25.549Z,965.65
2022-08-21T06:03:46.584Z,965.64
2022-08-21T06:04:46.529Z,965.63
2022-08-21T06:05:46.633Z,965.61
2022-08-21T06:06:46.444Z,965.65
2022-08-21T06:07:46.427Z,965.64
2022-08-21T06:08:46.365Z,965.67
2022-08-21T06:09:46.327Z,965.64
2022-08-21T06:10:46.283Z,965.67
2022-08-21T06:11:46.246Z,965.68
2022-08-21T06:12:46.203Z,965.65
2022-08-21T06:13:46.174Z,965.65
2022-08-21T06:14:46.122Z,965.64
2022-08-21T06:15:46.091Z,965.61
2022-08-21T06:16:46.045Z,965.62
2022-08-21T06:17:46.011Z,965.64
2022-08-21T06:18:45.980Z,965.60
2022-08-21T06:19:45.924Z,965.62
2022-08-21T06:20:45.881Z,965.61
2022-08-21T06:21:45.841Z,965.62
2022-08-21T06:22:45.803Z,965.63
2022-08-21T06:23:45.781Z,965.64
2022-08-21T06:24:45.766Z,965.64
2022-08-21T06:25:45.684Z,965.58
2022-08-21T06:26:45.647Z,965.58
2022-08-21T06:27:45.610Z,965.56
2022-08-21T06:28:45.567Z,965.54
2022-08-21T06:29:45.526Z,965.54
2022-08-21T06:30:45.506Z,965.52
2022-08-21T06:31:45.448Z,965.49
2022-08-21T06:32:45.413Z,965.51
2022-08-21T06:33:45.364Z,965.49
2022-08-21T06:34:45.330Z,965.52
2022-08-21T06:35:45.287Z,965.52
2022-08-21T06:36:45.264Z,965.54
2022-08-21T06:37:45.210Z,965.54
2022-08-21T06:38:50.902Z,965.52
2022-08-21T06:39:45.511Z,965.52
2022-08-21T06:40:47.242Z,965.47
2022-08-21T06:41:45.062Z,965.48
2022-08-21T06:42:45.011Z,965.48
2022-08-21T06:43:44.976Z,965.46
2022-08-21T06:44:44.940Z,965.48
2022-08-21T06:45:44.899Z,965.49
2022-08-21T06:46:44.903Z,965.47
2022-08-21T06:47:44.821Z,965.49
2022-08-21T06:48:44.785Z,965.49
2022-08-21T06:49:44.738Z,965.50
2022-08-21T06:50:44.705Z,965.47
2022-08-21T06:51:44.685Z,965.47
2022-08-21T06:52:44.748Z,965.50
2022-08-21T06:53:44.657Z,965.55
2022-08-21T06:54:44.557Z,965.53
2022-08-21T06:55:44.516Z,965.53
2022-08-21T06:56:44.471Z,965.55
2022-08-21T06:57:52.518Z,965.56
2022-08-21T06:58:44.421Z,965.59
2022-08-21T06:59:44.353Z,965.58
2022-08-21T07:00:44.320Z,965.60
2022-08-21T07:01:44.398Z,965.58
2022-08-21T07:02:44.234Z,965.56
2022-08-21T07:03:44.199Z,965.61
2022-08-21T07:04:44.184Z,965.57
2022-08-21T07:05:44.117Z,965.61
2022-08-21T07:06:44.086Z,965.59
2022-08-21T07:07:44.040Z,965.57
2022-08-21T07:08:44.037Z,965.59
2022-08-21T07:09:43.966Z,965.60
2022-08-21T07:10:43.922Z,965.60
2022-08-21T07:11:47.562Z,965.59
2022-08-21T07:12:43.843Z,965.62
2022-08-21T07:13:43.803Z,965.58
2022-08-21T07:14:43.792Z,965.58
2022-08-21T07:15:43.726Z,965.58
2022-08-21T07:16:43.701Z,965.60
2022-08-21T07:17:43.650Z,965.62
2022-08-21T07:18:43.616Z,965.59
2022-08-21T07:19:43.574Z,965.56
2022-08-21T07:20:43.553Z,965.59
2022-08-21T07:21:43.496Z,965.59
2022-08-21T07:22:43.453Z,965.56
2022-08-21T07:23:43.417Z,965.59
2022-08-21T07:24:43.373Z,965.57
2022-08-21T07:25:43.341Z,965.58
2022-08-21T07:26:43.314Z,965.57
2022-08-21T07:27:43.261Z,965.60
2022-08-21T07:28:43.221Z,965.57
2022-08-21T07:29:43.197Z,965.56
2022-08-21T07:30:43.143Z,965.56
2022-08-21T07:31:43.101Z,965.56
2022-08-21T07:32:43.064Z,965.57
2022-08-21T07:33:43.031Z,965.60
2022-08-21T07:34:42.983Z,965.55
2022-08-21T07:35:42.961Z,965.60
2022-08-21T07:36:42.932Z,965.57
2022-08-21T07:37:42.872Z,965.56
2022-08-21T07:38:42.843Z,965.58
2022-08-21T07:39:42.876Z,965.62
2022-08-21T07:40:42.754Z,965.61
2022-08-21T07:41:42.713Z,965.61
2022-08-21T07:42:42.691Z,965.61
2022-08-21T07:43:45.973Z,965.60
2022-08-21T07:44:42.594Z,965.59
2022-08-21T07:45:42.555Z,965.56
2022-08-21T07:46:42.522Z,965.60
2022-08-21T07:47:43.110Z,965.61
2022-08-21T07:48:42.457Z,965.62
2022-08-21T07:49:42.421Z,965.60
2022-08-21T07:50:42.363Z,965.63
2022-08-21T07:51:42.326Z,965.64
2022-08-21T07:52:42.291Z,965.65
2022-08-21T07:53:42.248Z,965.63
2022-08-21T07:54:42.208Z,965.64
2022-08-21T07:55:42.202Z,965.67
2022-08-21T07:56:42.134Z,965.67
2022-08-21T07:57:42.094Z,965.65
2022-08-21T07:58:42.055Z,965.68
2022-08-21T07:59:42.021Z,965.68
2022-08-21T08:00:41.981Z,965.67
2022-08-21T08:01:42.064Z,965.71
2022-08-21T08:02:41.936Z,965.75
2022-08-21T08:03:41.863Z,965.73
2022-08-21T08:04:50.573Z,965.69
2022-08-21T08:05:41.787Z,965.73
2022-08-21T08:06:41.754Z,965.73
2022-08-21T08:07:41.709Z,965.71
2022-08-21T08:08:41.811Z,965.72
2022-08-21T08:09:41.630Z,965.74
2022-08-21T08:10:41.591Z,965.71
2022-08-21T08:11:41.555Z,965.72
2022-08-21T08:12:41.520Z,965.73
2022-08-21T08:13:41.478Z,965.72
2022-08-21T08:14:41.452Z,965.72
2022-08-21T08:15:41.402Z,965.73
2022-08-21T08:16:41.358Z,965.65
2022-08-21T08:17:41.321Z,965.70
2022-08-21T08:18:41.282Z,965.69
2022-08-21T08:19:41.263Z,965.72
2022-08-21T08:20:41.204Z,965.69
2022-08-21T08:21:41.166Z,965.72
2022-08-21T08:22:41.128Z,965.70
2022-08-21T08:23:41.090Z,965.73
2022-08-21T08:24:41.053Z,965.71
2022-08-21T08:25:41.026Z,965.74
2022-08-21T08:26:40.974Z,965.72
2022-08-21T08:27:40.943Z,965.71
2022-08-21T08:28:40.899Z,965.71
2022-08-21T08:29:40.861Z,965.67
2022-08-21T08:30:40.825Z,965.67
2022-08-21T08:31:40.804Z,965.67
2022-08-21T08:32:40.747Z,965.71
2022-08-21T08:33:40.712Z,965.73
2022-08-21T08:34:40.667Z,965.71
2022-08-21T08:35:40.639Z,965.72
2022-08-21T08:36:40.606Z,965.73
2022-08-21T08:37:40.764Z,965.75
2022-08-21T08:38:40.520Z,965.77
2022-08-21T08:39:40.507Z,965.76
2022-08-21T08:40:43.011Z,965.79
2022-08-21T08:41:40.402Z,965.78
2022-08-21T08:42:40.372Z,965.76
2022-08-21T08:43:40.363Z,965.71
2022-08-21T08:44:40.296Z,965.73
2022-08-21T08:45:40.254Z,965.75
2022-08-21T08:46:40.219Z,965.69
2022-08-21T08:47:40.185Z,965.71
2022-08-21T08:48:40.143Z,965.67
2022-08-21T08:49:40.289Z,965.64
2022-08-21T08:50:40.070Z,965.62
2022-08-21T08:51:40.040Z,965.62
2022-08-21T08:52:39.998Z,965.60
2022-08-21T08:53:39.964Z,965.62
2022-08-21T08:54:39.927Z,965.63
2022-08-21T08:55:39.923Z,965.67
2022-08-21T08:56:39.859Z,965.70
2022-08-21T08:57:39.821Z,965.66
2022-08-21T08:58:39.784Z,965.67
2022-08-21T08:59:39.748Z,965.61
2022-08-21T09:00:39.720Z,965.68
2022-08-21T09:01:39.858Z,965.72
2022-08-21T09:02:40.289Z,965.80
2022-08-21T09:03:39.606Z,965.71
2022-08-21T09:04:39.572Z,965.68
2022-08-21T09:05:39.534Z,965.79
2022-08-21T09:06:39.506Z,965.82
2022-08-21T09:07:39.647Z,965.71
2022-08-21T09:08:39.434Z,965.65
2022-08-21T09:09:39.399Z,965.66
2022-08-21T09:10:39.366Z,965.64
2022-08-21T09:11:39.331Z,965.79
2022-08-21T09:12:39.301Z,965.88
2022-08-21T09:13:39.287Z,965.93
2022-08-21T09:14:39.234Z,965.87
2022-08-21T09:15:39.198Z,965.97
2022-08-21T09:16:39.167Z,965.70
2022-08-21T09:17:39.137Z,965.69
2022-08-21T09:18:39.113Z,965.72
2022-08-21T09:19:39.069Z,965.70
2022-08-21T09:20:39.035Z,965.71
2022-08-21T09:21:39.003Z,965.67
2022-08-21T09:22:38.972Z,965.66
2022-08-21T09:23:38.964Z,965.63
2022-08-21T09:24:38.907Z,965.62
2022-08-21T09:25:38.874Z,965.61
2022-08-21T09:26:38.847Z,965.59
2022-08-21T09:27:38.816Z,965.57
2022-08-21T09:28:38.782Z,965.60
2022-08-21T09:29:38.776Z,965.79
2022-08-21T09:30:38.716Z,965.58
2022-08-21T09:31:38.686Z,965.58
2022-08-21T09:32:38.675Z,965.66
2022-08-21T09:33:38.614Z,965.71
2022-08-21T09:34:38.586Z,965.65
2022-08-21T09:35:38.569Z,965.69
2022-08-21T09:36:38.517Z,965.51
2022-08-21T09:37:38.485Z,965.57
2022-08-21T09:38:38.458Z,965.70
2022-08-21T09:39:40.130Z,965.60
2022-08-21T09:40:38.487Z,965.51
2022-08-21T09:41:38.390Z,965.67
2022-08-21T09:42:38.329Z,965.67
2022-08-21T09:43:38.303Z,965.50
2022-08-21T09:44:38.272Z,965.50
2022-08-21T09:45:38.245Z,965.49
2022-08-21T09:46:38.207Z,965.67
2022-08-21T09:47:38.198Z,965.65
2022-08-21T09:48:38.144Z,965.63
2022-08-21T09:49:38.117Z,965.68
2022-08-21T09:50:38.090Z,965.61
2022-08-21T09:51:38.054Z,965.56
2022-08-21T09:52:38.035Z,965.67
2022-08-21T09:53:38.020Z,965.57
2022-08-21T09:54:37.967Z,965.56
2022-08-21T09:55:37.940Z,965.58
2022-08-21T09:56:37.918Z,965.63
2022-08-21T09:57:37.885Z,965.61
2022-08-21T09:58:37.860Z,965.59
2022-08-21T09:59:38.019Z,965.60
2022-08-21T10:00:37.875Z,965.56
2022-08-21T10:01:37.778Z,965.57
2022-08-21T10:02:37.746Z,965.56
2022-08-21T10:03:37.719Z,965.45
2022-08-21T10:04:37.692Z,965.54
2022-08-21T10:05:37.680Z,965.58
2022-08-21T10:06:37.637Z,965.57
2022-08-21T10:07:37.610Z,965.54
2022-08-21T10:08:37.592Z,965.50
2022-08-21T10:09:37.560Z,965.49
2022-08-21T10:10:37.541Z,965.40
2022-08-21T10:11:37.505Z,965.42
2022-08-21T10:12:37.479Z,965.45
2022-08-21T10:13:37.451Z,965.41
2022-08-21T10:14:37.421Z,965.38
2022-08-21T10:15:37.401Z,965.42
2022-08-21T10:16:37.393Z,965.38
2022-08-21T10:17:37.349Z,965.40
2022-08-21T10:18:37.318Z,965.41
2022-08-21T10:19:37.298Z,965.34
2022-08-21T10:20:37.267Z,965.36
2022-08-21T10:21:37.244Z,965.37
2022-08-21T10:22:37.242Z,965.35
2022-08-21T10:23:37.193Z,965.36
2022-08-21T10:24:37.164Z,965.37
2022-08-21T10:25:37.139Z,965.33
2022-08-21T10:26:37.139Z,965.33
2022-08-21T10:27:37.091Z,965.24
2022-08-21T10:28:37.088Z,965.26
2022-08-21T10:29:37.046Z,965.24
2022-08-21T10:30:37.017Z,965.22
2022-08-21T10:31:36.992Z,965.21
2022-08-21T10:32:36.973Z,965.25
2022-08-21T10:33:36.942Z,965.10
2022-08-21T10:34:36.932Z,965.05
2022-08-21T10:35:36.897Z,964.95
2022-08-21T10:36:36.869Z,964.94
2022-08-21T10:37:36.860Z,964.95
2022-08-21T10:38:52.712Z,965.07
2022-08-21T10:39:36.885Z,964.94
2022-08-21T10:40:36.767Z,964.87
2022-08-21T10:41:36.738Z,964.91
2022-08-21T10:44:08.733Z,964.85
2022-08-21T10:45:08.718Z,964.86
2022-08-21T10:46:08.669Z,964.85
2022-08-21T10:47:08.640Z,964.80
2022-08-21T10:48:08.617Z,964.81
2022-08-21T10:49:08.583Z,964.78
2022-08-21T10:50:08.569Z,964.80
2022-08-21T10:51:08.550Z,964.73
2022-08-21T10:52:08.505Z,964.77
2022-08-21T10:53:08.470Z,964.79
2022-08-21T10:54:08.451Z,964.77
2022-08-21T10:55:08.409Z,964.94
2022-08-21T10:56:08.382Z,964.69
2022-08-21T10:57:08.375Z,964.70
2022-08-21T10:58:08.317Z,964.71
2022-08-21T10:59:08.290Z,964.91
2022-08-21T11:00:08.260Z,964.76
2022-08-21T11:01:08.255Z,964.65
2022-08-21T11:02:08.201Z,964.64
2022-08-21T11:03:08.194Z,964.79
2022-08-21T11:04:08.138Z,964.86
2022-08-21T11:05:08.107Z,964.82
2022-08-21T11:06:08.080Z,964.86
2022-08-21T11:07:08.773Z,964.80
2022-08-21T11:08:08.021Z,964.80
2022-08-21T11:09:08.006Z,964.53
2022-08-21T11:10:07.961Z,964.53
2022-08-21T11:11:08.665Z,964.73
2022-08-21T11:12:11.094Z,964.76
2022-08-21T11:13:07.906Z,964.75
2022-08-21T11:14:07.845Z,964.71
2022-08-21T11:15:07.840Z,964.74
2022-08-21T11:16:07.790Z,964.55
2022-08-21T11:17:07.766Z,964.70
2022-08-21T11:18:07.733Z,964.68
2022-08-21T11:19:07.718Z,964.67
2022-08-21T11:20:07.677Z,964.69
2022-08-21T11:21:07.671Z,964.67
2022-08-21T11:22:07.632Z,964.65
2022-08-21T11:23:07.885Z,964.59
2022-08-21T11:24:07.581Z,964.60
2022-08-21T11:25:07.569Z,964.44
2022-08-21T11:26:07.557Z,964.60
2022-08-21T11:27:07.504Z,964.59
2022-08-21T11:28:09.810Z,964.59
2022-08-21T11:29:07.444Z,964.56
2022-08-21T11:30:07.419Z,964.61
2022-08-21T11:31:07.420Z,964.60
2022-08-21T11:32:07.389Z,964.56
2022-08-21T11:33:07.343Z,964.57
2022-08-21T11:34:07.323Z,964.62
2022-08-21T11:35:07.299Z,964.56
2022-08-21T11:36:07.284Z,964.57
2022-08-21T11:37:07.247Z,964.57
2022-08-21T11:38:07.400Z,964.51
2022-08-21T11:39:07.276Z,964.51
2022-08-21T11:40:07.264Z,964.49
2022-08-21T11:41:07.161Z,964.46
2022-08-21T11:42:08.993Z,964.38
2022-08-21T11:43:07.105Z,964.38
2022-08-21T11:44:07.110Z,964.38
2022-08-21T11:45:07.065Z,964.38
2022-08-21T11:46:07.038Z,964.37
2022-08-21T11:47:07.013Z,964.39
2022-08-21T11:48:06.982Z,964.34
2022-08-21T11:49:06.959Z,964.33
2022-08-21T11:50:34.105Z,964.34
2022-08-21T11:51:06.904Z,964.30
2022-08-21T11:52:06.903Z,964.35
2022-08-21T11:53:06.855Z,964.34
2022-08-21T11:54:07.230Z,964.33
2022-08-21T11:55:06.796Z,964.29
2022-08-21T11:56:06.798Z,964.31
2022-08-21T11:57:06.739Z,964.40
2022-08-21T11:58:06.719Z,964.39
2022-08-21T11:59:06.712Z,964.42
2022-08-21T12:00:06.755Z,964.46
2022-08-21T12:01:06.633Z,964.44
2022-08-21T12:02:06.637Z,964.46
2022-08-21T12:03:06.618Z,964.46
2022-08-21T12:04:06.547Z,964.45
2022-08-21T12:05:09.149Z,964.38
2022-08-21T12:06:06.492Z,964.35
2022-08-21T12:07:06.487Z,964.37
2022-08-21T12:08:06.445Z,964.34
2022-08-21T12:09:06.425Z,964.35
2022-08-21T12:10:06.468Z,964.34
2022-08-21T12:11:06.377Z,964.32
2022-08-21T12:12:06.382Z,964.32
2022-08-21T12:13:06.340Z,964.32
2022-08-21T12:14:06.309Z,964.32
2022-08-21T12:15:06.270Z,964.31
2022-08-21T12:16:06.245Z,964.30
2022-08-21T12:17:06.218Z,964.27
2022-08-21T12:18:06.222Z,964.28
2022-08-21T12:19:06.171Z,964.22
2022-08-21T12:20:06.192Z,964.19
2022-08-21T12:21:06.124Z,964.20
2022-08-21T12:22:06.115Z,964.20
2022-08-21T12:23:06.093Z,964.18
2022-08-21T12:24:06.054Z,964.15
2022-08-21T12:25:06.030Z,964.15
2022-08-21T12:26:06.019Z,964.16
2022-08-21T12:27:05.987Z,964.14
2022-08-21T12:28:06.431Z,964.09
2022-08-21T12:29:05.940Z,964.14
2022-08-21T12:30:05.916Z,964.07
2022-08-21T12:31:05.894Z,964.07
2022-08-21T12:32:05.874Z,964.10
2022-08-21T12:33:05.848Z,964.07